Time;durP1;ratioP1;P1;durP2;ratioP2;P2;SDS_P1;SDS_P2;PMS_P1;PMS_P2;Temp;Humidity;BMP_temperature;BMP_pressure;BME280_temperature;BME280_humidity;BME280_pressure;Samples;Min_cycle;Max_cycle;Signal;HPM_P1;HPM_P2
2023/04/13 00:02:24;;;;;;;0.50;0.43;;;17.10;67.00;;;;;;5020773;28;20045;-82
2023/04/13 00:04:53;;;;;;;0.88;0.50;;;17.10;67.00;;;;;;5037012;28;20033;-82
2023/04/13 00:07:21;;;;;;;0.82;0.52;;;17.10;67.00;;;;;;5034652;28;20079;-82
2023/04/13 00:09:49;;;;;;;0.50;0.50;;;17.10;67.30;;;;;;5035257;28;20036;-82
2023/04/13 00:12:15;;;;;;;1.08;0.60;;;17.10;67.20;;;;;;5041147;28;20052;-82
2023/04/13 00:14:40;;;;;;;0.55;0.55;;;17.10;67.20;;;;;;5038438;28;20029;-82
2023/04/13 00:17:06;;;;;;;1.40;0.60;;;17.10;67.10;;;;;;5037302;28;20025;-82
2023/04/13 00:19:35;;;;;;;0.70;0.70;;;17.10;67.80;;;;;;5025617;28;20136;-82
2023/04/13 00:22:03;;;;;;;0.68;0.52;;;17.10;67.20;;;;;;5022913;28;20096;-82
2023/04/13 00:24:28;;;;;;;0.60;0.35;;;17.10;67.20;;;;;;5039412;28;20049;-82
2023/04/13 00:26:55;;;;;;;0.55;0.52;;;17.10;67.10;;;;;;5034166;28;20043;-82
2023/04/13 00:29:21;;;;;;;0.80;0.70;;;17.10;67.10;;;;;;5034850;28;20065;-82
2023/04/13 00:31:47;;;;;;;0.73;0.50;;;17.10;67.00;;;;;;5034134;28;20072;-82
2023/04/13 00:34:12;;;;;;;0.47;0.35;;;17.10;67.10;;;;;;5036108;28;20041;-82
2023/04/13 00:36:38;;;;;;;0.70;0.50;;;17.00;67.80;;;;;;5036752;28;20041;-82
2023/04/13 00:39:03;;;;;;;0.60;0.47;;;17.00;67.00;;;;;;5040588;28;20042;-82
2023/04/13 00:41:29;;;;;;;0.63;0.47;;;17.00;67.10;;;;;;5039964;28;20051;-83
2023/04/13 00:43:54;;;;;;;1.17;0.45;;;17.00;67.10;;;;;;5053114;28;20052;-82
2023/04/13 00:46:21;;;;;;;1.05;0.70;;;17.00;67.00;;;;;;5022569;28;20040;-82
2023/04/13 00:48:47;;;;;;;0.50;0.50;;;17.00;66.90;;;;;;5038240;28;20048;-82
2023/04/13 00:51:14;;;;;;;0.80;0.40;;;17.00;67.00;;;;;;5034841;28;20104;-82
2023/04/13 00:53:43;;;;;;;0.50;0.40;;;17.00;66.80;;;;;;5053825;28;20079;-82
2023/04/13 00:56:09;;;;;;;0.40;0.30;;;17.00;66.80;;;;;;5040034;28;20029;-83
2023/04/13 00:58:35;;;;;;;0.70;0.60;;;17.00;66.90;;;;;;5038590;28;20044;-82
2023/04/13 01:01:01;;;;;;;0.93;0.47;;;17.00;66.90;;;;;;5041493;28;20045;-82
2023/04/13 01:03:28;;;;;;;0.82;0.70;;;17.00;66.90;;;;;;5034187;28;20045;-82
2023/04/13 01:06:07;;;;;;;0.98;0.60;;;17.00;67.70;;;;;;5033959;28;20533;-82
2023/04/13 01:08:38;;;;;;;0.82;0.50;;;17.00;66.90;;;;;;5024978;28;20044;-82
2023/04/13 01:11:06;;;;;;;1.25;0.80;;;17.00;67.50;;;;;;5043942;28;20159;-82
2023/04/13 01:13:47;;;;;;;1.00;0.55;;;17.00;67.00;;;;;;5031867;28;20052;-82
2023/04/13 01:16:19;;;;;;;0.75;0.50;;;17.00;66.90;;;;;;5030619;28;20055;-82
2023/04/13 01:18:45;;;;;;;0.90;0.63;;;17.00;66.80;;;;;;5025729;28;20071;-82
2023/04/13 01:21:13;;;;;;;0.43;0.43;;;17.00;66.90;;;;;;5024161;28;20049;-82
2023/04/13 01:24:04;;;;;;;0.50;0.50;;;17.00;66.90;;;;;;5035709;28;20053;-82
2023/04/13 01:26:52;;;;;;;1.15;0.63;;;17.00;66.90;;;;;;5045370;28;20074;-82
2023/04/13 01:29:18;;;;;;;0.93;0.50;;;17.00;66.90;;;;;;5051872;28;20044;-82
2023/04/13 01:31:44;;;;;;;0.98;0.85;;;17.00;66.80;;;;;;5046060;28;20510;-82
2023/04/13 01:34:09;;;;;;;1.25;0.90;;;16.90;66.90;;;;;;5043099;28;20040;-82
2023/04/13 01:36:35;;;;;;;0.70;0.60;;;16.90;66.90;;;;;;5045293;28;20070;-82
2023/04/13 01:39:00;;;;;;;0.52;0.52;;;17.00;67.00;;;;;;5057574;28;20052;-82
2023/04/13 01:41:26;;;;;;;0.43;0.40;;;16.90;66.80;;;;;;5062700;28;20103;-82
2023/04/13 01:43:52;;;;;;;0.82;0.60;;;16.90;66.90;;;;;;5068215;28;20144;-82
2023/04/13 01:46:18;;;;;;;0.70;0.55;;;16.90;66.90;;;;;;5028622;28;20040;-82
2023/04/13 01:48:49;;;;;;;0.70;0.60;;;16.90;66.90;;;;;;5060820;28;20111;-82
2023/04/13 01:51:19;;;;;;;0.98;0.60;;;16.90;66.90;;;;;;5050081;28;20063;-82
2023/04/13 01:53:55;;;;;;;0.40;0.40;;;16.90;66.90;;;;;;5050052;28;20115;-82
2023/04/13 01:56:21;;;;;;;0.40;0.28;;;16.90;67.10;;;;;;5047751;28;20055;-82
2023/04/13 01:58:50;;;;;;;0.50;0.50;;;16.90;66.90;;;;;;5075224;28;20075;-82
2023/04/13 02:01:16;;;;;;;0.55;0.55;;;16.90;66.90;;;;;;5048049;28;20269;-82
2023/04/13 02:03:42;;;;;;;0.95;0.50;;;16.80;66.80;;;;;;5032774;28;20037;-82
2023/04/13 02:06:09;;;;;;;2.42;0.50;;;16.90;66.90;;;;;;5068910;28;20044;-82
2023/04/13 02:08:36;;;;;;;1.08;0.60;;;16.90;66.90;;;;;;5043828;28;20044;-82
2023/04/13 02:11:02;;;;;;;0.82;0.60;;;16.90;66.90;;;;;;5039375;28;20457;-82
2023/04/13 02:13:29;;;;;;;0.52;0.43;;;16.90;66.90;;;;;;5036194;28;20460;-81
2023/04/13 02:15:54;;;;;;;1.05;0.63;;;16.90;66.90;;;;;;5042462;28;20075;-81
2023/04/13 02:18:22;;;;;;;0.70;0.50;;;16.80;66.70;;;;;;5040533;28;20510;-82
2023/04/13 02:21:07;;;;;;;0.85;0.50;;;16.90;66.80;;;;;;5036051;28;20041;-82
2023/04/13 02:23:33;;;;;;;;;;;16.90;66.90;;;;;;5038325;28;20037;-82
2023/04/13 02:25:59;;;;;;;1.10;0.45;;;16.90;66.90;;;;;;5038252;28;19927;-82
2023/04/13 02:28:26;;;;;;;0.52;0.40;;;16.90;66.70;;;;;;5013855;28;20044;-82
2023/04/13 02:30:55;;;;;;;0.88;0.50;;;16.90;66.80;;;;;;5042937;28;20058;-82
2023/04/13 02:33:20;;;;;;;1.27;0.57;;;16.90;66.80;;;;;;5041011;28;20056;-81
2023/04/13 02:35:49;;;;;;;0.73;0.38;;;16.90;66.80;;;;;;5039785;28;20049;-82
2023/04/13 02:38:15;;;;;;;1.98;0.50;;;16.80;66.70;;;;;;5044730;28;20063;-82
2023/04/13 02:40:42;;;;;;;0.80;0.60;;;16.90;66.70;;;;;;5040930;28;20502;-82
2023/04/13 02:43:08;;;;;;;1.05;0.40;;;16.80;66.70;;;;;;5038705;28;20053;-82
2023/04/13 02:45:34;;;;;;;0.70;0.40;;;16.90;66.80;;;;;;5022376;28;20064;-82
2023/04/13 02:48:00;;;;;;;1.15;0.80;;;16.80;67.50;;;;;;5043171;28;20102;-80
2023/04/13 02:50:26;;;;;;;1.00;0.52;;;16.80;66.80;;;;;;5039452;28;20043;-80
2023/04/13 02:52:52;;;;;;;0.75;0.75;;;16.90;66.80;;;;;;5037269;28;20053;-80
2023/04/13 02:55:18;;;;;;;0.57;0.50;;;16.80;66.70;;;;;;5042284;28;20041;-80
2023/04/13 02:57:44;;;;;;;0.75;0.32;;;16.80;66.70;;;;;;5038035;28;20056;-80
2023/04/13 03:00:10;;;;;;;0.50;0.50;;;16.80;66.70;;;;;;5025483;28;20090;-80
2023/04/13 03:02:36;;;;;;;0.93;0.55;;;16.80;66.60;;;;;;5038172;28;20583;-80
2023/04/13 03:05:04;;;;;;;2.13;0.60;;;16.80;66.80;;;;;;5040647;28;20502;-80
2023/04/13 03:07:33;;;;;;;0.88;0.43;;;16.80;66.80;;;;;;5037203;28;20502;-80
2023/04/13 03:10:03;;;;;;;0.55;0.47;;;16.80;66.60;;;;;;5042082;28;20059;-80
2023/04/13 03:12:30;;;;;;;0.88;0.50;;;16.80;66.60;;;;;;5037840;28;20080;-80
2023/04/13 03:14:55;;;;;;;0.70;0.50;;;16.80;66.60;;;;;;5037537;28;20518;-80
2023/04/13 03:17:21;;;;;;;0.93;0.60;;;16.80;66.70;;;;;;5042584;28;20048;-81
2023/04/13 03:19:48;;;;;;;0.80;0.50;;;16.80;66.70;;;;;;5039039;28;20506;-81
2023/04/13 03:22:14;;;;;;;0.75;0.50;;;16.80;66.70;;;;;;5039251;28;20091;-80
2023/04/13 03:24:40;;;;;;;0.82;0.50;;;16.80;66.60;;;;;;5040286;28;20060;-80
2023/04/13 03:27:06;;;;;;;0.93;0.40;;;16.80;66.70;;;;;;5036989;28;20045;-80
2023/04/13 03:29:31;;;;;;;0.80;0.70;;;16.80;66.40;;;;;;5039017;28;20033;-80
2023/04/13 03:31:57;;;;;;;0.70;0.63;;;16.80;66.70;;;;;;5037736;28;20084;-81
2023/04/13 03:34:22;;;;;;;0.60;0.40;;;16.80;66.70;;;;;;5036717;28;20050;-80
2023/04/13 03:36:48;;;;;;;0.50;0.40;;;16.80;66.60;;;;;;5038670;28;20038;-80
2023/04/13 03:39:14;;;;;;;0.70;0.60;;;16.80;66.60;;;;;;5024067;28;20084;-84
2023/04/13 03:41:39;;;;;;;1.08;0.47;;;16.80;66.50;;;;;;4672060;28;9999997;-79
2023/04/13 03:44:06;;;;;;;0.45;0.40;;;16.80;66.30;;;;;;5041898;28;20037;-82
2023/04/13 03:46:34;;;;;;;0.88;0.75;;;16.90;66.30;;;;;;5016533;28;20049;-81
2023/04/13 03:48:59;;;;;;;0.60;0.55;;;16.80;66.30;;;;;;5039386;28;20110;-83
2023/04/13 03:51:26;;;;;;;1.30;0.50;;;17.00;65.90;;;;;;5034453;28;20053;-84
2023/04/13 03:53:52;;;;;;;0.60;0.40;;;16.90;65.60;;;;;;5034846;28;20055;-82
2023/04/13 03:56:17;;;;;;;0.70;0.40;;;16.90;65.90;;;;;;5016626;28;20049;-81
2023/04/13 03:58:43;;;;;;;0.50;0.50;;;16.90;65.90;;;;;;5032333;28;20045;-82
2023/04/13 04:01:09;;;;;;;0.50;0.45;;;17.00;65.90;;;;;;5039251;28;20068;-83
2023/04/13 04:03:36;;;;;;;0.90;0.60;;;17.00;66.00;;;;;;5033463;28;20131;-83
2023/04/13 04:06:01;;;;;;;0.80;0.68;;;16.90;66.00;;;;;;5022982;28;20045;-83
2023/04/13 04:08:27;;;;;;;0.88;0.43;;;16.90;66.00;;;;;;5031923;28;20037;-82
2023/04/13 04:10:52;;;;;;;1.35;0.63;;;16.90;66.00;;;;;;5016318;28;20425;-81
2023/04/13 04:13:18;;;;;;;0.93;0.68;;;16.90;66.00;;;;;;5019940;28;20036;-80
2023/04/13 04:15:44;;;;;;;0.70;0.50;;;16.80;65.90;;;;;;5018389;28;20045;-81
2023/04/13 04:18:09;;;;;;;1.13;0.50;;;16.90;66.10;;;;;;5034760;28;20041;-82
2023/04/13 04:20:35;;;;;;;0.70;0.60;;;16.90;66.10;;;;;;5029742;28;20041;-82
2023/04/13 04:23:03;;;;;;;1.05;0.50;;;16.90;66.10;;;;;;5036053;28;20072;-80
2023/04/13 04:25:29;;;;;;;0.73;0.50;;;16.90;66.00;;;;;;5034395;28;20041;-80
2023/04/13 04:28:01;;;;;;;0.80;0.50;;;16.90;65.90;;;;;;5038345;28;20508;-80
2023/04/13 04:30:28;;;;;;;1.10;0.52;;;16.90;65.80;;;;;;5027898;28;20564;-81
2023/04/13 04:32:55;;;;;;;0.75;0.60;;;16.90;65.80;;;;;;5032389;28;20045;-81
2023/04/13 04:35:20;;;;;;;0.80;0.50;;;16.90;66.00;;;;;;5003312;28;20056;-82
2023/04/13 04:37:48;;;;;;;0.50;0.50;;;17.00;65.90;;;;;;5037143;28;20314;-81
2023/04/13 04:40:14;;;;;;;0.80;0.40;;;16.90;65.60;;;;;;5015282;28;20099;-82
2023/04/13 04:42:41;;;;;;;0.70;0.60;;;16.90;65.80;;;;;;5020057;28;20396;-82
2023/04/13 04:45:07;;;;;;;0.63;0.55;;;17.00;66.40;;;;;;5037611;28;21763;-82
2023/04/13 04:47:36;;;;;;;1.60;0.60;;;16.90;65.80;;;;;;5031887;28;20041;-82
2023/04/13 04:50:02;;;;;;;1.13;0.43;;;16.90;66.10;;;;;;5034562;28;20071;-82
2023/04/13 04:52:28;;;;;;;1.58;0.43;;;16.90;65.80;;;;;;5029113;28;20124;-82
2023/04/13 04:54:54;;;;;;;0.63;0.63;;;17.00;65.90;;;;;;5034798;28;20727;-81
2023/04/13 04:57:19;;;;;;;0.65;0.47;;;16.90;65.60;;;;;;5033212;28;20622;-81
2023/04/13 04:59:45;;;;;;;0.77;0.50;;;16.90;65.90;;;;;;5028774;28;20049;-82
2023/04/13 05:02:10;;;;;;;1.30;0.85;;;16.90;65.90;;;;;;5037223;28;20059;-82
2023/04/13 05:04:37;;;;;;;1.35;0.60;;;16.90;65.70;;;;;;5028429;28;20041;-81
2023/04/13 05:07:03;;;;;;;1.13;0.77;;;16.90;65.90;;;;;;5032141;28;20065;-81
2023/04/13 05:09:28;;;;;;;0.82;0.60;;;16.90;65.70;;;;;;5034433;28;20127;-81
2023/04/13 05:11:55;;;;;;;0.60;0.38;;;16.90;65.80;;;;;;5020462;28;20045;-82
2023/04/13 05:14:20;;;;;;;0.95;0.47;;;16.90;65.80;;;;;;5030639;28;20052;-82
2023/04/13 05:16:46;;;;;;;0.70;0.45;;;16.90;65.60;;;;;;5031103;28;20048;-82
2023/04/13 05:19:12;;;;;;;1.10;0.50;;;16.90;65.80;;;;;;5037048;28;20509;-83
2023/04/13 05:21:38;;;;;;;0.80;0.40;;;16.90;66.60;;;;;;5032006;28;20072;-82
2023/04/13 05:24:03;;;;;;;0.50;0.47;;;16.90;65.90;;;;;;5003458;28;20118;-83
2023/04/13 05:26:33;;;;;;;0.40;0.35;;;16.90;65.70;;;;;;5028605;28;20423;-82
2023/04/13 05:28:58;;;;;;;0.40;0.40;;;16.80;65.50;;;;;;5033660;28;20151;-82
2023/04/13 05:31:24;;;;;;;0.45;0.35;;;16.90;65.70;;;;;;5030060;28;20144;-80
2023/04/13 05:33:50;;;;;;;0.98;0.65;;;16.90;65.40;;;;;;5035750;28;20073;-81
2023/04/13 05:36:16;;;;;;;0.57;0.50;;;16.80;65.40;;;;;;5031866;28;20079;-82
2023/04/13 05:38:41;;;;;;;1.17;0.50;;;16.90;65.20;;;;;;5034590;28;20036;-82
2023/04/13 05:41:09;;;;;;;2.65;0.40;;;16.90;65.30;;;;;;5017580;28;20120;-79
2023/04/13 05:43:34;;;;;;;1.35;0.40;;;16.90;65.20;;;;;;5013123;28;20427;-83
2023/04/13 05:46:00;;;;;;;0.70;0.50;;;17.00;65.30;;;;;;5037698;28;20518;-80
2023/04/13 05:48:26;;;;;;;0.57;0.43;;;16.90;65.30;;;;;;5032208;28;20063;-81
2023/04/13 05:50:58;;;;;;;0.40;0.40;;;17.00;65.20;;;;;;5029108;28;20053;-81
2023/04/13 05:53:23;;;;;;;1.10;0.70;;;17.00;65.10;;;;;;5022002;28;20047;-81
2023/04/13 05:55:49;;;;;;;0.82;0.45;;;16.90;65.10;;;;;;5020331;28;20045;-82
2023/04/13 05:58:15;;;;;;;0.80;0.50;;;17.00;65.20;;;;;;5035176;28;20344;-83
2023/04/13 06:00:41;;;;;;;0.50;0.50;;;17.00;65.80;;;;;;5027110;28;20053;-80
2023/04/13 06:03:07;;;;;;;0.82;0.70;;;17.00;64.80;;;;;;5035525;28;20114;-80
2023/04/13 06:05:35;;;;;;;1.65;0.60;;;16.90;65.30;;;;;;5033339;28;20068;-82
2023/04/13 06:08:01;;;;;;;0.68;0.47;;;16.90;65.30;;;;;;5035842;28;20041;-81
2023/04/13 06:10:26;;;;;;;0.60;0.50;;;16.90;65.30;;;;;;5036211;28;20517;-80
2023/04/13 06:12:53;;;;;;;1.33;0.57;;;16.90;65.40;;;;;;5034271;28;20044;-80
2023/04/13 06:15:19;;;;;;;0.77;0.60;;;16.90;65.40;;;;;;5040422;28;20438;-81
2023/04/13 06:17:45;;;;;;;1.38;0.60;;;17.00;65.10;;;;;;5038891;28;20060;-83
2023/04/13 06:20:11;;;;;;;0.90;0.60;;;16.90;65.40;;;;;;5039640;28;20597;-82
2023/04/13 06:22:37;;;;;;;0.38;0.32;;;16.90;65.40;;;;;;5028521;28;20052;-82
2023/04/13 06:25:03;;;;;;;0.38;0.30;;;16.90;65.50;;;;;;5020083;28;20439;-80
2023/04/13 06:27:28;;;;;;;0.75;0.70;;;16.90;65.50;;;;;;5060358;28;20048;-80
2023/04/13 06:29:55;;;;;;;0.80;0.45;;;16.90;65.90;;;;;;5030598;28;20051;-81
2023/04/13 06:32:20;;;;;;;0.75;0.40;;;16.90;65.80;;;;;;5029887;28;20467;-81
2023/04/13 06:34:46;;;;;;;0.70;0.40;;;16.90;66.00;;;;;;5032805;28;20048;-80
2023/04/13 06:37:11;;;;;;;2.22;0.52;;;16.80;65.80;;;;;;5074206;28;20115;-80
2023/04/13 06:39:37;;;;;;;0.70;0.50;;;16.90;66.00;;;;;;5047528;28;20040;-80
2023/04/13 06:42:03;;;;;;;0.80;0.45;;;16.90;65.70;;;;;;5047185;28;20076;-81
2023/04/13 06:44:29;;;;;;;0.98;0.60;;;16.90;65.50;;;;;;5034595;28;20044;-80
2023/04/13 06:46:55;;;;;;;1.20;0.50;;;17.00;65.40;;;;;;5014056;28;20118;-80
2023/04/13 06:49:21;;;;;;;0.60;0.40;;;17.00;65.40;;;;;;5047681;28;20568;-80
2023/04/13 06:51:46;;;;;;;1.02;0.50;;;17.00;65.10;;;;;;5026737;28;20041;-80
2023/04/13 06:54:12;;;;;;;0.60;0.60;;;16.90;65.40;;;;;;5030510;28;20094;-80
2023/04/13 06:56:37;;;;;;;0.52;0.32;;;16.90;65.40;;;;;;5042264;28;20048;-80
2023/04/13 06:59:03;;;;;;;0.80;0.52;;;16.90;65.40;;;;;;5046764;28;20052;-81
2023/04/13 07:01:29;;;;;;;0.88;0.50;;;16.90;65.30;;;;;;5045751;28;20073;-80
2023/04/13 07:03:55;;;;;;;0.68;0.50;;;16.90;65.50;;;;;;5055640;28;20091;-80
2023/04/13 07:06:21;;;;;;;0.77;0.50;;;16.90;65.60;;;;;;5046317;28;20498;-80
2023/04/13 07:08:46;;;;;;;1.13;0.60;;;16.80;65.50;;;;;;5055258;28;20773;-80
2023/04/13 07:11:13;;;;;;;1.10;0.60;;;16.90;65.60;;;;;;5067080;28;20036;-81
2023/04/13 07:13:38;;;;;;;1.13;0.73;;;16.80;65.50;;;;;;5050810;28;20097;-80
2023/04/13 07:16:05;;;;;;;1.20;0.73;;;16.80;65.50;;;;;;5066922;28;20029;-81
2023/04/13 07:18:30;;;;;;;1.17;0.80;;;16.90;65.50;;;;;;5078834;28;20041;-81
2023/04/13 07:20:56;;;;;;;0.73;0.65;;;16.90;65.40;;;;;;5064377;28;21713;-80
2023/04/13 07:23:22;;;;;;;0.82;0.75;;;16.90;65.50;;;;;;5048993;28;20622;-81
2023/04/13 07:25:47;;;;;;;0.80;0.80;;;16.90;65.30;;;;;;5014863;28;20040;-80
2023/04/13 07:28:13;;;;;;;0.95;0.55;;;16.90;65.30;;;;;;5062912;28;20044;-81
2023/04/13 07:30:42;;;;;;;2.75;1.08;;;16.90;65.40;;;;;;5066317;28;20139;-80
2023/04/13 07:33:08;;;;;;;1.75;0.60;;;16.80;65.50;;;;;;5065445;28;20051;-81
2023/04/13 07:35:35;;;;;;;1.92;0.70;;;16.80;65.60;;;;;;5064907;28;20040;-80
2023/04/13 07:38:01;;;;;;;0.80;0.60;;;16.90;65.60;;;;;;5050220;28;20045;-80
2023/04/13 07:40:26;;;;;;;0.65;0.40;;;16.80;65.40;;;;;;5061274;28;20052;-80
2023/04/13 07:42:52;;;;;;;1.40;0.57;;;16.80;65.50;;;;;;5047441;28;20056;-80
2023/04/13 07:45:19;;;;;;;1.13;0.50;;;16.80;65.70;;;;;;5028496;28;20141;-80
2023/04/13 07:47:45;;;;;;;0.60;0.40;;;16.80;65.70;;;;;;5075473;28;20071;-80
2023/04/13 07:50:12;;;;;;;1.35;0.88;;;16.80;65.60;;;;;;5062496;28;20060;-81
2023/04/13 07:52:37;;;;;;;1.92;0.55;;;16.80;65.70;;;;;;5056825;28;20029;-80
2023/04/13 07:55:04;;;;;;;0.82;0.60;;;16.80;65.80;;;;;;5067065;28;20090;-80
2023/04/13 07:57:30;;;;;;;1.10;0.65;;;16.80;65.80;;;;;;5066285;28;20123;-80
2023/04/13 07:59:55;;;;;;;0.80;0.55;;;16.80;65.80;;;;;;5065862;28;20132;-80
2023/04/13 08:02:21;;;;;;;0.75;0.60;;;16.80;65.70;;;;;;5065974;28;20517;-81
2023/04/13 08:04:47;;;;;;;1.30;0.90;;;16.90;65.70;;;;;;5065413;28;20067;-80
2023/04/13 08:07:13;;;;;;;0.38;0.38;;;16.90;65.60;;;;;;5044322;28;20053;-80
2023/04/13 08:09:39;;;;;;;1.70;0.57;;;16.90;65.30;;;;;;5034887;28;20351;-81
2023/04/13 08:12:05;;;;;;;1.90;0.70;;;16.80;63.20;;;;;;5048053;28;20102;-80
2023/04/13 08:14:31;;;;;;;0.60;0.57;;;16.90;63.40;;;;;;5056799;28;20517;-79
2023/04/13 08:16:57;;;;;;;1.05;0.50;;;17.00;64.20;;;;;;5038797;28;20060;-80
2023/04/13 08:19:22;;;;;;;1.00;0.47;;;17.00;64.60;;;;;;5053907;28;20049;-80
2023/04/13 08:21:49;;;;;;;0.73;0.50;;;17.00;64.70;;;;;;5060904;28;20048;-80
2023/04/13 08:24:14;;;;;;;0.95;0.40;;;17.00;64.80;;;;;;5030212;28;20709;-80
2023/04/13 08:26:40;;;;;;;0.50;0.50;;;17.00;65.00;;;;;;5046294;28;20123;-80
2023/04/13 08:29:06;;;;;;;0.95;0.63;;;17.00;65.10;;;;;;5071474;28;20928;-81
2023/04/13 08:31:31;;;;;;;0.50;0.30;;;17.00;65.90;;;;;;5049177;28;20044;-80
2023/04/13 08:33:57;;;;;;;0.45;0.40;;;17.00;65.50;;;;;;5028516;28;20068;-80
2023/04/13 08:36:22;;;;;;;1.35;0.57;;;17.10;65.30;;;;;;5053417;28;20112;-81
2023/04/13 08:38:48;;;;;;;0.40;0.30;;;17.10;65.10;;;;;;5035842;28;20297;-80
2023/04/13 08:41:16;;;;;;;0.77;0.52;;;17.10;65.10;;;;;;5028715;28;20506;-80
2023/04/13 08:43:42;;;;;;;0.98;0.60;;;17.10;65.20;;;;;;5035578;28;20119;-80
2023/04/13 08:46:07;;;;;;;0.57;0.30;;;17.10;65.30;;;;;;5028247;28;20128;-80
2023/04/13 08:48:34;;;;;;;2.15;0.50;;;17.20;65.30;;;;;;5045205;28;20059;-84
2023/04/13 08:51:00;;;;;;;0.52;0.50;;;17.20;65.40;;;;;;5027156;28;20514;-84
2023/04/13 08:53:27;;;;;;;0.50;0.40;;;17.30;65.40;;;;;;5011641;28;20037;-84
2023/04/13 08:55:54;;;;;;;1.20;0.40;;;17.20;65.40;;;;;;5052788;28;20438;-84
2023/04/13 08:58:20;;;;;;;0.85;0.50;;;17.30;65.40;;;;;;5040711;28;20040;-84
2023/04/13 09:00:46;;;;;;;0.70;0.60;;;17.30;65.50;;;;;;5027122;28;20040;-84
2023/04/13 09:03:12;;;;;;;0.50;0.40;;;17.30;65.30;;;;;;5037625;28;20036;-84
2023/04/13 09:05:38;;;;;;;1.23;0.40;;;17.30;65.20;;;;;;5029234;28;20044;-83
2023/04/13 09:08:06;;;;;;;0.80;0.60;;;17.30;65.10;;;;;;5026884;28;20041;-84
2023/04/13 09:10:34;;;;;;;0.80;0.50;;;17.30;65.10;;;;;;5040131;28;20132;-85
2023/04/13 09:13:00;;;;;;;0.60;0.50;;;17.30;65.00;;;;;;5058006;28;20038;-84
2023/04/13 09:15:26;;;;;;;0.38;0.38;;;17.30;64.80;;;;;;5014691;28;20529;-85
2023/04/13 09:17:52;;;;;;;0.75;0.60;;;17.30;64.90;;;;;;5054327;28;20037;-84
2023/04/13 09:20:20;;;;;;;0.68;0.50;;;17.30;65.70;;;;;;5027177;28;20049;-85
2023/04/13 09:22:46;;;;;;;0.60;0.50;;;17.30;64.70;;;;;;5034812;28;20029;-84
2023/04/13 09:25:28;;;;;;;0.63;0.40;;;17.30;64.60;;;;;;5023112;28;20712;-85
2023/04/13 09:27:54;;;;;;;0.70;0.50;;;17.30;64.50;;;;;;5029767;28;20040;-85
2023/04/13 09:30:24;;;;;;;0.40;0.35;;;17.30;64.40;;;;;;5026857;28;20128;-85
2023/04/13 09:33:09;;;;;;;0.20;0.20;;;17.30;64.40;;;;;;5028926;28;20541;-85
2023/04/13 09:35:34;;;;;;;0.60;0.60;;;17.30;64.40;;;;;;5025339;28;20039;-84
2023/04/13 09:38:00;;;;;;;0.50;0.38;;;17.30;64.40;;;;;;5033936;28;20136;-85
2023/04/13 09:40:26;;;;;;;0.40;0.30;;;17.30;64.40;;;;;;5032705;28;20041;-85
2023/04/13 09:42:59;;;;;;;0.22;0.22;;;17.30;64.20;;;;;;5034681;28;20045;-85
2023/04/13 09:45:40;;;;;;;0.70;0.40;;;17.30;64.20;;;;;;5009577;28;20041;-85
2023/04/13 09:48:20;;;;;;;0.57;0.40;;;17.30;64.00;;;;;;5045643;28;20524;-85
2023/04/13 09:50:47;;;;;;;3.03;0.52;;;17.40;63.90;;;;;;5038616;28;20033;-84
2023/04/13 09:53:13;;;;;;;0.65;0.38;;;17.40;64.10;;;;;;5004936;28;20040;-83
2023/04/13 09:55:39;;;;;;;0.32;0.30;;;17.40;64.20;;;;;;5032123;28;20076;-84
2023/04/13 09:58:12;;;;;;;0.70;0.40;;;17.50;64.40;;;;;;5026163;28;20044;-83
2023/04/13 10:00:39;;;;;;;0.40;0.40;;;17.50;64.30;;;;;;5011288;28;20035;-83
2023/04/13 10:03:09;;;;;;;0.30;0.30;;;17.50;64.20;;;;;;5039581;28;20045;-83
2023/04/13 10:05:36;;;;;;;0.40;0.25;;;17.50;63.90;;;;;;5033350;28;20049;-84
2023/04/13 10:08:02;;;;;;;0.40;0.32;;;17.50;63.90;;;;;;5039915;28;20052;-83
2023/04/13 10:10:27;;;;;;;1.35;0.57;;;17.50;63.90;;;;;;5032865;28;20049;-83
2023/04/13 10:12:54;;;;;;;0.75;0.45;;;17.50;64.00;;;;;;5029377;28;20040;-83
2023/04/13 10:15:41;;;;;;;0.50;0.50;;;17.50;64.10;;;;;;5010807;28;20039;-83
2023/04/13 10:18:19;;;;;;;0.98;0.60;;;17.50;64.10;;;;;;5047451;28;20043;-83
2023/04/13 10:20:44;;;;;;;0.68;0.40;;;17.50;64.10;;;;;;5035446;28;20049;-83
2023/04/13 10:23:10;;;;;;;0.40;0.30;;;17.40;64.10;;;;;;5021986;28;20057;-83
2023/04/13 10:25:36;;;;;;;0.43;0.38;;;17.50;64.10;;;;;;5015482;28;20045;-84
2023/04/13 10:28:01;;;;;;;0.30;0.30;;;17.50;64.10;;;;;;5031598;28;20083;-84
2023/04/13 10:30:27;;;;;;;2.70;0.57;;;17.40;64.10;;;;;;5013653;28;20071;-84
2023/04/13 10:33:07;;;;;;;0.40;0.30;;;17.40;64.20;;;;;;5028719;28;20491;-84
2023/04/13 10:35:34;;;;;;;0.43;0.40;;;17.40;64.40;;;;;;5058080;28;20047;-83
2023/04/13 10:38:00;;;;;;;1.65;0.40;;;17.40;64.10;;;;;;5012623;28;20041;-80
2023/04/13 10:40:26;;;;;;;1.77;0.40;;;17.40;64.90;;;;;;5021616;28;20048;-84
2023/04/13 10:42:51;;;;;;;1.77;0.32;;;17.40;64.10;;;;;;5027040;28;20488;-85
2023/04/13 10:45:20;;;;;;;0.38;0.22;;;17.40;64.50;;;;;;5047291;28;20052;-84
2023/04/13 10:47:46;;;;;;;0.40;0.38;;;17.50;64.80;;;;;;5047635;28;20506;-84
2023/04/13 10:50:20;;;;;;;1.63;0.40;;;17.50;65.10;;;;;;5061864;28;20041;-87
2023/04/13 10:53:06;;;;;;;0.65;0.45;;;17.40;65.20;;;;;;5028716;28;20037;-79
2023/04/13 10:55:32;;;;;;;1.30;0.70;;;17.40;66.10;;;;;;5043627;28;20699;-76
2023/04/13 10:57:59;;;;;;;0.38;0.30;;;17.40;65.40;;;;;;5044641;28;20036;-78
2023/04/13 11:00:25;;;;;;;0.63;0.40;;;17.50;64.50;;;;;;5044504;28;20053;-78
2023/04/13 11:02:56;;;;;;;1.55;0.30;;;17.50;64.20;;;;;;5043177;28;20037;-77
2023/04/13 11:05:21;;;;;;;0.43;0.43;;;17.50;64.50;;;;;;5027402;28;20494;-77
2023/04/13 11:07:48;;;;;;;0.20;0.20;;;17.50;64.80;;;;;;5063556;28;20051;-80
2023/04/13 11:10:14;;;;;;;0.50;0.30;;;17.50;65.10;;;;;;5032090;28;20068;-78
2023/04/13 11:12:53;;;;;;;0.57;0.55;;;17.60;65.40;;;;;;5022195;28;20123;-79
2023/04/13 11:15:23;;;;;;;0.55;0.55;;;17.50;65.80;;;;;;4712454;28;9999746;-79
2023/04/13 11:17:58;;;;;;;0.30;0.30;;;17.60;65.60;;;;;;5029172;28;20048;-79
2023/04/13 11:20:36;;;;;;;0.80;0.32;;;17.50;64.70;;;;;;5062420;28;20040;-79
2023/04/13 11:23:11;;;;;;;0.40;0.20;;;17.50;64.50;;;;;;5069449;28;20056;-78
2023/04/13 11:25:36;;;;;;;0.35;0.30;;;17.50;64.40;;;;;;5043861;28;20047;-80
2023/04/13 11:28:03;;;;;;;0.43;0.22;;;17.50;64.40;;;;;;5063536;28;20044;-80
2023/04/13 11:30:29;;;;;;;0.55;0.30;;;17.50;64.50;;;;;;5072808;28;20155;-80
2023/04/13 11:32:58;;;;;;;0.40;0.20;;;17.50;64.50;;;;;;5009017;28;20072;-80
2023/04/13 11:35:24;;;;;;;0.30;0.20;;;17.50;64.50;;;;;;5027766;28;20418;-80
2023/04/13 11:37:51;;;;;;;0.32;0.20;;;17.50;64.50;;;;;;5030097;28;20529;-80
2023/04/13 11:40:24;;;;;;;0.28;0.28;;;17.50;64.40;;;;;;5029388;28;20530;-80
2023/04/13 11:42:57;;;;;;;0.50;0.50;;;17.60;64.40;;;;;;5047754;28;20586;-79
2023/04/13 11:45:27;;;;;;;0.20;0.20;;;17.60;64.40;;;;;;5057179;28;20120;-79
2023/04/13 11:47:53;;;;;;;0.77;0.40;;;17.60;64.50;;;;;;5031118;28;20041;-79
2023/04/13 11:50:20;;;;;;;0.47;0.40;;;17.60;64.60;;;;;;4997569;28;20045;-79
2023/04/13 11:52:46;;;;;;;0.38;0.32;;;17.50;64.80;;;;;;5038281;28;20135;-79
2023/04/13 11:55:12;;;;;;;0.50;0.20;;;17.60;65.00;;;;;;5048580;28;20094;-79
2023/04/13 11:57:39;;;;;;;0.20;0.20;;;17.60;65.00;;;;;;5045138;28;20040;-77
2023/04/13 12:00:20;;;;;;;0.30;0.25;;;17.50;64.80;;;;;;5073665;28;20052;-77
2023/04/13 12:02:46;;;;;;;0.20;0.20;;;17.60;64.80;;;;;;5059340;28;20123;-78
2023/04/13 12:05:23;;;;;;;0.80;0.20;;;17.60;64.40;;;;;;5064401;28;20178;-77
2023/04/13 12:07:49;;;;;;;0.68;0.30;;;17.60;64.20;;;;;;5063533;28;20048;-78
2023/04/13 12:10:24;;;;;;;0.20;0.20;;;17.60;64.90;;;;;;5039480;28;21136;-78
2023/04/13 12:13:07;;;;;;;0.28;0.17;;;17.70;64.10;;;;;;5064684;28;20097;-78
2023/04/13 12:15:34;;;;;;;0.20;0.20;;;17.70;64.20;;;;;;5064645;28;20037;-77
2023/04/13 12:18:01;;;;;;;1.17;0.30;;;17.70;64.20;;;;;;5066213;28;20045;-77
2023/04/13 12:20:42;;;;;;;0.20;0.20;;;17.60;64.30;;;;;;5049426;28;20033;-78
2023/04/13 12:23:17;;;;;;;0.20;0.20;;;17.60;64.50;;;;;;5048230;28;20106;-77
2023/04/13 12:25:56;;;;;;;0.47;0.30;;;17.60;64.80;;;;;;5065464;28;20040;-77
2023/04/13 12:28:30;;;;;;;0.40;0.20;;;17.50;64.70;;;;;;5038859;28;20123;-77
2023/04/13 12:31:05;;;;;;;0.57;0.22;;;17.60;64.30;;;;;;5035144;28;20045;-77
2023/04/13 12:33:30;;;;;;;0.30;0.30;;;17.60;64.20;;;;;;5038789;28;20045;-77
2023/04/13 12:35:56;;;;;;;0.10;0.10;;;17.60;64.00;;;;;;5036642;28;20522;-77
2023/04/13 12:38:25;;;;;;;0.35;0.20;;;17.60;63.90;;;;;;5036721;28;20045;-78
2023/04/13 12:40:57;;;;;;;0.30;0.30;;;17.70;63.90;;;;;;5036378;28;20069;-78
2023/04/13 12:43:23;;;;;;;0.20;0.10;;;17.70;63.90;;;;;;5039261;28;20482;-78
2023/04/13 12:45:48;;;;;;;0.70;0.20;;;17.70;63.80;;;;;;5037396;28;20055;-77
2023/04/13 12:48:14;;;;;;;0.50;0.35;;;17.70;64.60;;;;;;5035865;28;20120;-77
2023/04/13 12:50:39;;;;;;;0.50;0.25;;;17.70;63.80;;;;;;5038817;28;20503;-78